createdAt,value
2016-05-11T00:00:24.903Z,25.79
2016-05-11T00:01:25.217Z,25.76
2016-05-11T00:02:25.205Z,25.8
2016-05-11T00:03:25.067Z,25.82
2016-05-11T00:04:25.069Z,25.77
2016-05-11T00:05:25.228Z,25.83
2016-05-11T00:06:25.247Z,25.73
2016-05-11T00:07:25.249Z,25.8
2016-05-11T00:08:25.253Z,25.82
2016-05-11T00:09:25.270Z,25.79
2016-05-11T00:10:25.116Z,25.83
2016-05-11T00:11:25.276Z,25.8
2016-05-11T00:12:25.122Z,25.82
2016-05-11T00:13:25.140Z,25.8
2016-05-11T00:14:25.300Z,25.8
2016-05-11T00:15:25.318Z,25.77
2016-05-11T00:16:25.305Z,25.77
2016-05-11T00:17:25.323Z,25.83
2016-05-11T00:18:25.373Z,25.82
2016-05-11T00:19:25.344Z,25.77
2016-05-11T00:20:25.331Z,25.8
2016-05-11T00:21:25.193Z,25.85
2016-05-11T00:22:25.368Z,25.8
2016-05-11T00:23:25.354Z,25.8
2016-05-11T00:24:25.374Z,25.82
2016-05-11T00:25:25.235Z,25.77
2016-05-11T00:26:25.082Z,25.8
2016-05-11T00:27:25.241Z,25.87
2016-05-11T00:28:25.400Z,25.73
2016-05-11T00:29:25.418Z,25.83
2016-05-11T00:30:25.436Z,25.77
2016-05-11T00:31:25.423Z,25.79
2016-05-11T00:32:25.426Z,25.8
2016-05-11T00:33:25.445Z,25.8
2016-05-11T00:34:25.447Z,25.77
2016-05-11T00:35:25.450Z,25.75
2016-05-11T00:36:25.468Z,25.72
2016-05-11T00:37:25.470Z,25.8
2016-05-11T00:38:25.317Z,25.76
2016-05-11T00:39:25.476Z,25.76
2016-05-11T00:40:25.494Z,25.85
2016-05-11T00:41:25.497Z,25.77
2016-05-11T00:42:25.499Z,25.76
2016-05-11T00:43:25.519Z,25.82
2016-05-11T00:44:25.521Z,25.76
2016-05-11T00:45:25.383Z,25.79
2016-05-11T00:46:25.542Z,25.76
2016-05-11T00:47:25.388Z,25.75
2016-05-11T00:48:25.547Z,25.8
2016-05-11T00:49:25.238Z,25.7
2016-05-11T00:50:25.412Z,25.82
2016-05-11T00:51:25.571Z,25.79
2016-05-11T00:52:25.573Z,25.7
2016-05-11T00:53:25.576Z,25.73
2016-05-11T00:54:25.595Z,25.79
2016-05-11T00:55:25.613Z,25.82
2016-05-11T00:56:25.600Z,25.79
2016-05-11T00:57:25.603Z,25.8
2016-05-11T00:58:25.637Z,25.75
2016-05-11T00:59:25.639Z,25.76
2016-05-11T01:00:25.939Z,25.77
2016-05-11T01:01:25.644Z,25.85
2016-05-11T01:02:25.647Z,25.82
2016-05-11T01:03:25.665Z,25.77
2016-05-11T01:04:25.356Z,25.72
2016-05-11T01:05:25.687Z,25.75
2016-05-11T01:06:25.377Z,25.75
2016-05-11T01:07:25.536Z,25.76
2016-05-11T01:08:25.694Z,25.75
2016-05-11T01:09:25.556Z,25.72
2016-05-11T01:10:25.700Z,25.76
2016-05-11T01:11:25.719Z,25.79
2016-05-11T01:12:25.565Z,25.7
2016-05-11T01:13:25.739Z,25.75
2016-05-11T01:14:25.742Z,25.73
2016-05-11T01:15:25.447Z,25.67
2016-05-11T01:16:25.608Z,25.75
2016-05-11T01:17:25.765Z,25.75
2016-05-11T01:18:25.768Z,25.7
2016-05-11T01:19:25.771Z,25.75
2016-05-11T01:20:25.633Z,25.75
2016-05-11T01:21:25.793Z,25.73
2016-05-11T01:22:25.638Z,25.77
2016-05-11T01:23:25.844Z,25.72
2016-05-11T01:24:25.815Z,25.72
2016-05-11T01:25:25.659Z,25.73
2016-05-11T01:26:25.821Z,25.76
2016-05-11T01:27:25.824Z,25.77
2016-05-11T01:28:25.890Z,25.73
2016-05-11T01:29:25.860Z,25.7
2016-05-11T01:30:25.782Z,25.76
2016-05-11T01:31:25.865Z,25.73
2016-05-11T01:32:25.869Z,25.77
2016-05-11T01:33:25.729Z,25.77
2016-05-11T01:34:25.903Z,25.77
2016-05-11T01:35:25.890Z,25.73
2016-05-11T01:36:25.892Z,25.75
2016-05-11T01:37:25.754Z,25.67
2016-05-11T01:38:25.913Z,25.69
2016-05-11T01:39:25.917Z,25.69
2016-05-11T01:40:25.934Z,25.69
2016-05-11T01:41:25.936Z,25.76
2016-05-11T01:42:25.940Z,25.76
2016-05-11T01:43:25.958Z,25.76
2016-05-11T01:44:25.961Z,25.72
2016-05-11T01:45:26.151Z,25.7
2016-05-11T01:46:25.966Z,25.75
2016-05-11T01:47:25.984Z,25.7
2016-05-11T01:48:25.987Z,25.73
2016-05-11T01:49:25.991Z,25.67
2016-05-11T01:50:25.852Z,25.76
2016-05-11T01:51:25.683Z,25.67
2016-05-11T01:52:26.013Z,25.67
2016-05-11T01:53:26.016Z,25.67
2016-05-11T01:54:26.035Z,25.69
2016-05-11T01:55:26.037Z,25.72
2016-05-11T01:56:25.899Z,25.7
2016-05-11T01:57:25.902Z,25.72
2016-05-11T01:58:26.061Z,25.7
2016-05-11T01:59:26.063Z,25.73
2016-05-11T02:00:26.066Z,25.7
2016-05-11T02:01:26.084Z,25.75
2016-05-11T02:02:26.087Z,25.73
2016-05-11T02:03:25.933Z,25.75
2016-05-11T02:04:26.093Z,25.73
2016-05-11T02:05:26.112Z,25.73
2016-05-11T02:06:26.114Z,25.72
2016-05-11T02:07:26.116Z,25.64
2016-05-11T02:08:25.978Z,25.69
2016-05-11T02:09:26.137Z,25.72
2016-05-11T02:10:25.999Z,25.73
2016-05-11T02:11:26.158Z,25.67
2016-05-11T02:12:26.161Z,25.67
2016-05-11T02:13:25.992Z,25.64
2016-05-11T02:14:26.010Z,25.69
2016-05-11T02:15:26.216Z,25.7
2016-05-11T02:16:26.188Z,25.72
2016-05-11T02:17:26.191Z,25.67
2016-05-11T02:18:26.208Z,25.7
2016-05-11T02:19:26.211Z,25.73
2016-05-11T02:20:26.230Z,25.67
2016-05-11T02:21:26.060Z,25.67
2016-05-11T02:22:26.079Z,25.67
2016-05-11T02:23:26.097Z,25.67
2016-05-11T02:24:26.255Z,25.67
2016-05-11T02:25:26.243Z,25.67
2016-05-11T02:26:26.104Z,25.67
2016-05-11T02:27:26.263Z,25.65
2016-05-11T02:28:26.282Z,25.65
2016-05-11T02:29:26.285Z,25.72
2016-05-11T02:30:25.990Z,25.72
2016-05-11T02:31:26.306Z,25.73
2016-05-11T02:32:25.996Z,25.72
2016-05-11T02:33:26.312Z,25.65
2016-05-11T02:34:26.157Z,25.57
2016-05-11T02:35:26.176Z,25.6
2016-05-11T02:36:26.178Z,25.58
2016-05-11T02:37:26.337Z,25.61
2016-05-11T02:38:26.356Z,25.62
2016-05-11T02:39:26.218Z,25.6
2016-05-11T02:40:26.378Z,25.62
2016-05-11T02:41:26.364Z,25.61
2016-05-11T02:42:26.383Z,25.62
2016-05-11T02:43:26.228Z,25.6
2016-05-11T02:44:26.419Z,25.62
2016-05-11T02:45:27.249Z,25.6
2016-05-11T02:46:26.409Z,25.57
2016-05-11T02:47:26.255Z,25.58
2016-05-11T02:48:26.414Z,25.58
2016-05-11T02:49:26.433Z,25.58
2016-05-11T02:50:26.435Z,25.64
2016-05-11T02:51:26.453Z,25.6
2016-05-11T02:52:26.441Z,25.6
2016-05-11T02:53:26.458Z,25.64
2016-05-11T02:54:26.461Z,25.54
2016-05-11T02:55:26.480Z,25.55
2016-05-11T02:56:26.341Z,25.55
2016-05-11T02:57:26.329Z,25.6
2016-05-11T02:58:26.518Z,25.62
2016-05-11T02:59:26.522Z,25.55
2016-05-11T03:00:26.369Z,25.62
2016-05-11T03:01:26.512Z,25.58
2016-05-11T03:02:26.357Z,25.6
2016-05-11T03:03:26.517Z,25.6
2016-05-11T03:04:26.534Z,25.57
2016-05-11T03:05:26.537Z,25.52
2016-05-11T03:06:26.541Z,25.52
2016-05-11T03:07:26.543Z,25.5
2016-05-11T03:08:26.406Z,25.52
2016-05-11T03:09:26.564Z,25.52
2016-05-11T03:10:26.567Z,25.54
2016-05-11T03:11:26.585Z,25.47
2016-05-11T03:12:26.588Z,25.51
2016-05-11T03:13:26.606Z,25.57
2016-05-11T03:14:26.609Z,25.52
2016-05-11T03:15:26.486Z,25.52
2016-05-11T03:16:26.614Z,25.54
2016-05-11T03:17:26.617Z,25.57
2016-05-11T03:18:26.620Z,25.47
2016-05-11T03:19:26.497Z,25.55
2016-05-11T03:20:26.656Z,25.54
2016-05-11T03:21:26.643Z,25.47
2016-05-11T03:22:26.646Z,25.61
2016-05-11T03:23:26.664Z,25.62
2016-05-11T03:24:26.682Z,25.55
2016-05-11T03:25:26.686Z,25.5
2016-05-11T03:26:26.688Z,25.47
2016-05-11T03:27:26.691Z,25.52
2016-05-11T03:28:26.710Z,25.52
2016-05-11T03:29:26.540Z,25.54
2016-05-11T03:30:27.073Z,25.5
2016-05-11T03:31:26.739Z,25.5
2016-05-11T03:32:26.625Z,25.54
2016-05-11T03:33:26.823Z,25.5
2016-05-11T03:34:26.882Z,25.51
2016-05-11T03:35:26.955Z,25.52
2016-05-11T03:36:26.806Z,25.51
2016-05-11T03:37:26.995Z,25.5
2016-05-11T03:38:27.012Z,25.54
2016-05-11T03:39:27.013Z,25.5
2016-05-11T03:40:26.717Z,25.46
2016-05-11T03:41:27.061Z,25.51
2016-05-11T03:42:27.069Z,25.52
2016-05-11T03:43:27.091Z,25.45
2016-05-11T03:44:27.099Z,25.52
2016-05-11T03:45:27.420Z,25.45
2016-05-11T03:46:27.130Z,25.46
2016-05-11T03:47:27.135Z,25.43
2016-05-11T03:48:27.139Z,25.5
2016-05-11T03:49:27.143Z,25.47
2016-05-11T03:50:27.163Z,25.55
2016-05-11T03:51:27.028Z,25.5
2016-05-11T03:52:27.170Z,25.51
2016-05-11T03:53:27.174Z,25.45
2016-05-11T03:54:27.177Z,25.43
2016-05-11T03:55:27.196Z,25.43
2016-05-11T03:56:27.199Z,25.46
2016-05-11T03:57:27.202Z,25.47
2016-05-11T03:58:27.064Z,25.54
2016-05-11T03:59:27.239Z,25.55
2016-05-11T04:00:27.195Z,25.45
2016-05-11T04:01:27.246Z,25.51
2016-05-11T04:02:27.248Z,25.5
2016-05-11T04:03:27.251Z,25.4
2016-05-11T04:04:27.270Z,25.45
2016-05-11T04:05:27.272Z,25.52
2016-05-11T04:06:27.274Z,25.45
2016-05-11T04:07:27.277Z,25.51
2016-05-11T04:08:27.297Z,25.51
2016-05-11T04:09:27.314Z,25.52
2016-05-11T04:10:27.302Z,25.57
2016-05-11T04:11:27.147Z,25.51
2016-05-11T04:12:27.212Z,25.52
2016-05-11T04:13:27.324Z,25.5
2016-05-11T04:14:27.188Z,25.47
2016-05-11T04:15:27.377Z,25.52
2016-05-11T04:16:27.349Z,25.5
2016-05-11T04:17:27.351Z,25.57
2016-05-11T04:18:27.041Z,25.5
2016-05-11T04:19:27.372Z,25.47
2016-05-11T04:20:27.359Z,25.47
2016-05-11T04:21:27.237Z,25.54
2016-05-11T04:22:27.380Z,25.51
2016-05-11T04:23:27.398Z,25.54
2016-05-11T04:24:27.401Z,25.58
2016-05-11T04:25:27.248Z,25.57
2016-05-11T04:26:27.407Z,25.57
2016-05-11T04:27:27.426Z,25.58
2016-05-11T04:28:27.428Z,25.6
2016-05-11T04:29:27.274Z,25.57
2016-05-11T04:30:27.464Z,25.6
2016-05-11T04:31:27.467Z,25.55
2016-05-11T04:32:27.469Z,25.57
2016-05-11T04:33:27.473Z,25.55
2016-05-11T04:34:27.475Z,25.58
2016-05-11T04:35:27.477Z,25.55
2016-05-11T04:36:27.339Z,25.58
2016-05-11T04:37:27.499Z,25.57
2016-05-11T04:38:27.501Z,25.57
2016-05-11T04:39:27.505Z,25.57
2016-05-11T04:40:27.522Z,25.61
2016-05-11T04:41:27.525Z,25.57
2016-05-11T04:42:27.528Z,25.58
2016-05-11T04:43:27.546Z,25.65
2016-05-11T04:44:27.549Z,25.61
2016-05-11T04:45:27.442Z,25.65
2016-05-11T04:46:27.554Z,25.57
2016-05-11T04:47:27.572Z,25.58
2016-05-11T04:48:27.575Z,25.57
2016-05-11T04:49:27.577Z,25.72
2016-05-11T04:50:27.596Z,25.67
2016-05-11T04:51:27.443Z,25.62
2016-05-11T04:52:27.445Z,25.69
2016-05-11T04:53:27.604Z,25.69
2016-05-11T04:54:27.623Z,25.61
2016-05-11T04:55:27.468Z,25.65
2016-05-11T04:56:27.644Z,25.7
2016-05-11T04:57:27.630Z,25.67
2016-05-11T04:58:27.493Z,25.69
2016-05-11T04:59:27.683Z,25.57
2016-05-11T05:00:28.217Z,25.7
2016-05-11T05:01:27.516Z,25.65
2016-05-11T05:02:27.692Z,25.77
2016-05-11T05:03:27.694Z,25.75
2016-05-11T05:04:27.697Z,25.76
2016-05-11T05:05:27.700Z,25.82
2016-05-11T05:06:27.717Z,25.76
2016-05-11T05:07:27.564Z,25.9
2016-05-11T05:08:27.566Z,25.88
2016-05-11T05:09:27.725Z,25.88
2016-05-11T05:10:27.744Z,25.9
2016-05-11T05:11:27.762Z,25.9
2016-05-11T05:12:27.764Z,25.87
2016-05-11T05:13:27.767Z,25.87
2016-05-11T05:14:27.770Z,25.94
2016-05-11T05:15:27.819Z,26.02
2016-05-11T05:16:28.010Z,25.97
2016-05-11T05:17:27.810Z,26.02
2016-05-11T05:18:28.234Z,26.07
2016-05-11T05:19:27.830Z,26.13
2016-05-11T05:20:27.896Z,26.15
2016-05-11T05:21:27.851Z,26.15
2016-05-11T05:22:27.963Z,26.13
2016-05-11T05:23:27.857Z,26.21
2016-05-11T05:24:27.875Z,26.26
2016-05-11T05:25:27.879Z,26.32
2016-05-11T05:26:27.880Z,26.36
2016-05-11T05:27:27.884Z,26.37
2016-05-11T05:28:27.901Z,26.44
2016-05-11T05:29:27.904Z,26.45
2016-05-11T05:30:27.906Z,26.47
2016-05-11T05:31:27.926Z,26.51
2016-05-11T05:32:27.943Z,26.48
2016-05-11T05:33:27.946Z,26.52
2016-05-11T05:34:27.965Z,26.52
2016-05-11T05:35:27.967Z,26.52
2016-05-11T05:36:27.829Z,26.55
2016-05-11T05:37:27.675Z,26.57
2016-05-11T05:38:27.991Z,26.6
2016-05-11T05:39:28.009Z,26.7
2016-05-11T05:40:28.028Z,26.66
2016-05-11T05:41:28.030Z,26.75
2016-05-11T05:42:28.049Z,26.75
2016-05-11T05:43:28.052Z,26.8
2016-05-11T05:44:28.054Z,26.77
2016-05-11T05:45:27.916Z,26.85
2016-05-11T05:46:28.091Z,26.84
2016-05-11T05:47:28.093Z,26.85
2016-05-11T05:48:28.111Z,26.84
2016-05-11T05:49:28.114Z,26.94
2016-05-11T05:50:28.133Z,26.92
2016-05-11T05:51:28.135Z,26.95
2016-05-11T05:52:28.154Z,26.94
2016-05-11T05:53:28.156Z,26.99
2016-05-11T05:54:28.174Z,27.04
2016-05-11T05:55:28.177Z,27.09
2016-05-11T05:56:28.039Z,27.09
2016-05-11T05:57:28.214Z,27.06
2016-05-11T05:58:28.217Z,27.19
2016-05-11T05:59:28.234Z,27.1
2016-05-11T06:00:28.128Z,27.18
2016-05-11T06:01:28.256Z,27.17
2016-05-11T06:02:28.258Z,27.22
2016-05-11T06:03:28.277Z,27.28
2016-05-11T06:04:28.279Z,27.34
2016-05-11T06:05:28.142Z,27.31
2016-05-11T06:06:28.300Z,27.34
2016-05-11T06:07:28.162Z,27.31
2016-05-11T06:08:28.322Z,27.46
2016-05-11T06:09:28.339Z,27.44
2016-05-11T06:10:28.359Z,27.37
2016-05-11T06:11:28.361Z,27.41
2016-05-11T06:12:28.222Z,27.46
2016-05-11T06:13:28.414Z,27.57
2016-05-11T06:14:28.244Z,27.54
2016-05-11T06:15:28.419Z,27.57
2016-05-11T06:16:28.421Z,27.67
2016-05-11T06:17:28.424Z,27.75
2016-05-11T06:18:28.286Z,27.63
2016-05-11T06:19:29.476Z,27.7
2016-05-11T06:20:37.903Z,27.69
2016-05-11T06:21:35.906Z,27.7
2016-05-11T06:22:37.660Z,27.84
2016-05-11T06:23:33.519Z,27.75
2016-05-11T06:24:34.646Z,27.78
2016-05-11T06:25:33.445Z,27.82
2016-05-11T06:26:34.932Z,27.84
2016-05-11T06:27:28.670Z,27.81
2016-05-11T06:28:28.844Z,27.88
2016-05-11T06:29:28.426Z,27.82
2016-05-11T06:30:28.599Z,27.84
2016-05-11T06:31:28.602Z,27.82
2016-05-11T06:32:42.562Z,27.85
2016-05-11T06:33:28.640Z,27.82
2016-05-11T06:34:28.642Z,27.87
2016-05-11T06:35:28.645Z,27.94
2016-05-11T06:36:28.507Z,27.9
2016-05-11T06:37:28.665Z,27.87
2016-05-11T06:38:28.684Z,27.87
2016-05-11T06:39:28.702Z,27.92
2016-05-11T06:40:28.548Z,27.85
2016-05-11T06:41:28.567Z,27.9
2016-05-11T06:42:28.741Z,27.84
2016-05-11T06:43:28.744Z,27.93
2016-05-11T06:44:28.590Z,27.9
2016-05-11T06:45:29.577Z,27.9
2016-05-11T06:46:28.784Z,27.9
2016-05-11T06:47:28.630Z,27.92
2016-05-11T06:48:28.805Z,27.9
2016-05-11T06:49:28.822Z,27.87
2016-05-11T06:50:28.669Z,28
2016-05-11T06:51:28.844Z,27.92
2016-05-11T06:52:28.862Z,27.94
2016-05-11T06:53:28.865Z,27.94
2016-05-11T06:54:28.883Z,27.96
2016-05-11T06:55:28.901Z,27.9
2016-05-11T06:56:28.904Z,27.87
2016-05-11T06:57:28.907Z,27.99
2016-05-11T06:58:28.940Z,27.96
2016-05-11T06:59:28.943Z,27.94
2016-05-11T07:00:28.962Z,28.02
2016-05-11T07:01:32.215Z,27.97
2016-05-11T07:02:28.827Z,28.11
2016-05-11T07:03:28.859Z,28.09
2016-05-11T07:04:28.848Z,27.94
2016-05-11T07:05:29.023Z,28.04
2016-05-11T07:06:29.040Z,28.04
2016-05-11T07:07:29.043Z,28.11
2016-05-11T07:08:29.061Z,28.09
2016-05-11T07:09:29.079Z,28.12
2016-05-11T07:10:29.098Z,28.11
2016-05-11T07:11:29.100Z,28.04
2016-05-11T07:12:29.119Z,28.15
2016-05-11T07:13:28.964Z,28.14
2016-05-11T07:14:28.984Z,28.03
2016-05-11T07:15:29.049Z,28.07
2016-05-11T07:16:29.161Z,28.03
2016-05-11T07:17:29.038Z,28.06
2016-05-11T07:18:29.197Z,28.11
2016-05-11T07:19:29.216Z,28.09
2016-05-11T07:20:29.218Z,28.04
2016-05-11T07:21:29.268Z,28.07
2016-05-11T07:22:29.255Z,28.04
2016-05-11T07:23:29.273Z,28.15
2016-05-11T07:24:29.151Z,28.03
2016-05-11T07:25:29.138Z,28.07
2016-05-11T07:26:29.312Z,27.94
2016-05-11T07:27:29.316Z,27.75
2016-05-11T07:28:29.178Z,27.55
2016-05-11T07:29:29.352Z,27.4
2016-05-11T07:30:29.370Z,27.34
2016-05-11T07:31:29.201Z,27.28
2016-05-11T07:32:29.391Z,27.14
2016-05-11T07:33:29.393Z,27.18
2016-05-11T07:34:29.396Z,27.09
2016-05-11T07:35:29.415Z,27.13
2016-05-11T07:36:29.434Z,27.09
2016-05-11T07:37:29.436Z,27.06
2016-05-11T07:38:29.454Z,27.04
2016-05-11T07:39:29.301Z,27
2016-05-11T07:40:29.460Z,27
2016-05-11T07:41:29.478Z,26.92
2016-05-11T07:42:29.325Z,26.97
2016-05-11T07:43:29.343Z,26.89
2016-05-11T07:44:29.502Z,26.88
2016-05-11T07:45:29.380Z,26.91
2016-05-11T07:46:29.523Z,26.91
2016-05-11T07:47:29.526Z,26.95
2016-05-11T07:48:29.544Z,26.81
2016-05-11T07:49:29.562Z,26.82
2016-05-11T07:50:29.564Z,26.87
2016-05-11T07:51:29.567Z,26.82
2016-05-11T07:52:29.601Z,26.85
2016-05-11T07:53:29.447Z,26.81
2016-05-11T07:54:29.608Z,26.76
2016-05-11T07:55:29.297Z,26.73
2016-05-11T07:56:29.613Z,26.63
2016-05-11T07:57:29.630Z,26.69
2016-05-11T07:58:29.632Z,26.51
2016-05-11T07:59:29.746Z,26.55
2016-05-11T08:00:29.655Z,26.54
2016-05-11T08:01:29.532Z,26.52
2016-05-11T08:02:29.691Z,26.57
2016-05-11T08:03:29.678Z,26.52
2016-05-11T08:04:29.712Z,26.54
2016-05-11T08:05:29.699Z,26.54
2016-05-11T08:06:29.718Z,26.44
2016-05-11T08:07:29.751Z,26.54
2016-05-11T08:08:29.754Z,26.54
2016-05-11T08:09:29.740Z,26.65
2016-05-11T08:10:29.743Z,26.62
2016-05-11T08:11:29.746Z,26.52
2016-05-11T08:12:29.765Z,26.52
2016-05-11T08:13:29.767Z,26.55
2016-05-11T08:14:29.786Z,26.51
2016-05-11T08:15:29.632Z,26.52
2016-05-11T08:16:29.791Z,26.65
2016-05-11T08:17:29.794Z,26.5
2016-05-11T08:18:29.812Z,26.52
2016-05-11T08:19:29.830Z,26.54
2016-05-11T08:20:29.833Z,26.65
2016-05-11T08:21:29.836Z,26.52
2016-05-11T08:22:29.854Z,26.52
2016-05-11T08:23:29.857Z,26.65
2016-05-11T08:24:29.860Z,26.66
2016-05-11T08:25:29.863Z,26.62
2016-05-11T08:26:29.896Z,26.54
2016-05-11T08:27:29.899Z,26.52
2016-05-11T08:28:29.746Z,26.54
2016-05-11T08:29:29.919Z,26.52
2016-05-11T08:30:29.922Z,26.52
2016-05-11T08:31:29.925Z,26.55
2016-05-11T08:32:29.943Z,26.52
2016-05-11T08:33:29.790Z,26.51
2016-05-11T08:34:29.949Z,26.65
2016-05-11T08:35:29.951Z,26.57
2016-05-11T08:36:29.970Z,26.55
2016-05-11T08:37:29.957Z,26.52
2016-05-11T08:38:29.975Z,26.45
2016-05-11T08:39:29.978Z,26.51
2016-05-11T08:40:29.981Z,26.51
2016-05-11T08:41:29.999Z,26.57
2016-05-11T08:42:30.017Z,26.52
2016-05-11T08:43:30.020Z,26.52
2016-05-11T08:44:30.023Z,26.55
2016-05-11T08:45:30.103Z,26.52
2016-05-11T08:46:30.028Z,26.45
2016-05-11T08:47:30.031Z,26.45
2016-05-11T08:48:30.049Z,26.6
2016-05-11T08:49:30.068Z,26.55
2016-05-11T08:50:30.086Z,26.52
2016-05-11T08:51:30.088Z,26.48
2016-05-11T08:52:29.935Z,26.48
2016-05-11T08:53:29.953Z,26.5
2016-05-11T08:54:30.096Z,26.45
2016-05-11T08:55:30.114Z,26.45
2016-05-11T08:56:30.117Z,26.48
2016-05-11T08:57:29.964Z,26.45
2016-05-11T08:58:30.122Z,26.36
2016-05-11T08:59:30.141Z,26.43
2016-05-11T09:00:30.394Z,26.45
2016-05-11T09:01:30.005Z,26.45
2016-05-11T09:02:30.008Z,26.52
2016-05-11T09:03:30.183Z,26.5
2016-05-11T09:04:30.186Z,26.52
2016-05-11T09:05:30.188Z,26.55
2016-05-11T09:06:30.206Z,26.43
2016-05-11T09:07:30.210Z,26.51
2016-05-11T09:08:30.056Z,26.5
2016-05-11T09:09:30.230Z,26.51
2016-05-11T09:10:30.234Z,26.44
2016-05-11T09:11:30.095Z,26.47
2016-05-11T09:12:30.098Z,26.5
2016-05-11T09:13:30.101Z,26.51
2016-05-11T09:14:30.259Z,26.47
2016-05-11T09:15:30.262Z,26.48
2016-05-11T09:16:30.405Z,26.45
2016-05-11T09:17:30.283Z,26.5
2016-05-11T09:18:30.130Z,26.48
2016-05-11T09:19:30.147Z,26.55
2016-05-11T09:20:30.307Z,26.51
2016-05-11T09:21:30.309Z,26.51
2016-05-11T09:22:30.312Z,26.47
2016-05-11T09:23:30.175Z,26.48
2016-05-11T09:24:30.349Z,26.55
2016-05-11T09:25:30.352Z,26.51
2016-05-11T09:26:30.386Z,26.5
2016-05-11T09:27:30.388Z,26.57
2016-05-11T09:28:30.375Z,26.45
2016-05-11T09:29:30.378Z,26.5
2016-05-11T09:30:30.412Z,26.5
2016-05-11T09:31:30.399Z,26.45
2016-05-11T09:32:30.246Z,26.45
2016-05-11T09:33:30.435Z,26.43
2016-05-11T09:34:30.282Z,26.52
2016-05-11T09:35:30.269Z,26.51
2016-05-11T09:36:30.443Z,26.58
2016-05-11T09:37:30.446Z,26.54
2016-05-11T09:38:30.448Z,26.52
2016-05-11T09:39:30.452Z,26.63
2016-05-11T09:40:30.471Z,26.67
2016-05-11T09:41:30.488Z,26.63
2016-05-11T09:42:30.491Z,26.66
2016-05-11T09:43:30.493Z,26.67
2016-05-11T09:44:30.512Z,26.57
2016-05-11T09:45:30.686Z,26.57
2016-05-11T09:46:30.517Z,26.51
2016-05-11T09:47:30.520Z,26.47
2016-05-11T09:48:30.539Z,26.54
2016-05-11T09:49:30.384Z,26.63
2016-05-11T09:50:30.544Z,26.66
2016-05-11T09:51:30.578Z,26.63
2016-05-11T09:52:30.581Z,26.72
2016-05-11T09:53:30.583Z,26.7
2016-05-11T09:54:30.586Z,26.73
2016-05-11T09:55:30.588Z,26.65
2016-05-11T09:56:30.607Z,26.72
2016-05-11T09:57:30.453Z,26.69
2016-05-11T09:58:30.628Z,26.72
2016-05-11T09:59:30.474Z,26.66
2016-05-11T10:00:31.039Z,26.75
2016-05-11T10:01:30.635Z,26.73
2016-05-11T10:02:30.654Z,26.7
2016-05-11T10:03:30.657Z,26.66
2016-05-11T10:04:30.674Z,26.69
2016-05-11T10:05:30.678Z,26.7
2016-05-11T10:06:30.696Z,26.73
2016-05-11T10:07:31.746Z,26.66
2016-05-11T10:08:30.702Z,26.67
2016-05-11T10:09:30.720Z,26.66
2016-05-11T10:10:30.723Z,26.69
2016-05-11T10:11:30.741Z,26.73
2016-05-11T10:12:30.743Z,26.7
2016-05-11T10:13:30.762Z,26.66
2016-05-11T10:14:30.593Z,26.69
2016-05-11T10:15:30.783Z,26.66
2016-05-11T10:16:30.786Z,26.69
2016-05-11T10:17:30.617Z,26.75
2016-05-11T10:18:30.791Z,26.77
2016-05-11T10:19:30.795Z,26.87
2016-05-11T10:20:30.812Z,26.81
2016-05-11T10:21:30.815Z,26.84
2016-05-11T10:22:30.802Z,26.81
2016-05-11T10:23:30.663Z,26.77
2016-05-11T10:24:30.839Z,26.87
2016-05-11T10:25:30.841Z,26.91
2016-05-11T10:26:30.688Z,26.88
2016-05-11T10:27:30.862Z,26.87
2016-05-11T10:28:30.880Z,26.95
2016-05-11T10:29:30.711Z,26.91
2016-05-11T10:30:30.730Z,26.88
2016-05-11T10:33:30.972Z,27.09
2016-05-11T10:33:43.597Z,27.12
2016-05-11T10:34:43.772Z,26.95
2016-05-11T10:35:43.774Z,26.95
2016-05-11T10:36:43.778Z,26.97
2016-05-11T10:37:43.779Z,26.87
2016-05-11T10:38:43.783Z,26.55
2016-05-11T10:39:43.785Z,26.43
2016-05-11T10:40:43.788Z,26.33
2016-05-11T10:41:43.791Z,26.17
2016-05-11T10:42:43.810Z,25.88
2016-05-11T10:43:43.843Z,26.2
2016-05-11T10:44:43.814Z,26.13
2016-05-11T10:45:43.817Z,26.1
2016-05-11T10:46:43.835Z,25.92
2016-05-11T10:47:43.822Z,25.83
2016-05-11T10:48:43.825Z,25.85
2016-05-11T10:49:43.859Z,25.97
2016-05-11T10:50:43.674Z,26.09
2016-05-11T10:51:43.833Z,26.17
2016-05-11T10:52:43.836Z,26.17
2016-05-11T10:53:43.682Z,26.17
2016-05-11T10:54:43.842Z,26.13
2016-05-11T10:55:43.844Z,26.12
2016-05-11T10:56:43.847Z,26.21
2016-05-11T10:57:43.708Z,26.32
2016-05-11T10:58:43.867Z,26.35
2016-05-11T10:59:43.886Z,26.26
2016-05-11T11:00:43.717Z,26.3
2016-05-11T11:01:43.875Z,26.39
2016-05-11T11:02:43.878Z,26.28
2016-05-11T11:03:43.725Z,26.23
2016-05-11T11:04:43.884Z,26.3
2016-05-11T11:05:43.730Z,26.21
2016-05-11T11:06:43.889Z,26.12
2016-05-11T11:07:43.908Z,26.18
2016-05-11T11:08:43.910Z,26.15
2016-05-11T11:09:43.788Z,26.17
2016-05-11T11:10:43.759Z,26.15
2016-05-11T11:11:43.919Z,25.98
2016-05-11T11:12:43.905Z,26.18
2016-05-11T11:13:43.923Z,26.25
2016-05-11T11:14:43.927Z,26.3
2016-05-11T11:15:44.335Z,26.45
2016-05-11T11:16:43.931Z,26.3
2016-05-11T11:17:43.934Z,26.43
2016-05-11T11:18:44.016Z,26.45
2016-05-11T11:19:43.799Z,26.55
2016-05-11T11:20:43.801Z,26.66
2016-05-11T11:21:43.962Z,26.52
2016-05-11T11:22:43.964Z,26.35
2016-05-11T11:23:43.826Z,26.55
2016-05-11T11:24:43.812Z,26.67
2016-05-11T11:25:43.987Z,26.66
2016-05-11T11:26:43.975Z,26.39
2016-05-11T11:27:43.977Z,26.4
2016-05-11T11:28:44.011Z,26.45
2016-05-11T11:29:43.998Z,26.29
2016-05-11T11:30:44.000Z,26.23
2016-05-11T11:31:44.003Z,26.21
2016-05-11T11:32:44.006Z,26.13
2016-05-11T11:33:44.025Z,26.17
2016-05-11T11:34:44.011Z,26.21
2016-05-11T11:35:43.889Z,26.44
2016-05-11T11:36:44.047Z,26.47
2016-05-11T11:37:44.035Z,26.37
2016-05-11T11:38:44.038Z,26.33
2016-05-11T11:39:44.040Z,26.39
2016-05-11T11:40:44.043Z,26.28
2016-05-11T11:41:44.077Z,26.35
2016-05-11T11:42:44.064Z,26.17
2016-05-11T11:43:44.066Z,26.3
2016-05-11T11:44:44.054Z,26.45
2016-05-11T11:45:44.104Z,26.4
2016-05-11T11:46:44.075Z,26.1
2016-05-11T11:47:43.906Z,25.99
2016-05-11T11:48:44.080Z,25.75
2016-05-11T11:49:44.083Z,25.87
2016-05-11T11:50:44.070Z,25.8
2016-05-11T11:51:44.087Z,25.99
2016-05-11T11:52:44.091Z,25.91
2016-05-11T11:53:43.937Z,25.98
2016-05-11T11:54:43.925Z,26.07
2016-05-11T11:55:43.942Z,26.18
2016-05-11T11:56:44.102Z,26.28
2016-05-11T11:57:43.933Z,26.37
2016-05-11T11:58:44.091Z,26.37
2016-05-11T11:59:44.110Z,26.43
2016-05-11T12:00:45.645Z,26.37
2016-05-11T12:01:44.334Z,26.45
2016-05-11T12:02:44.117Z,26.52
2016-05-11T12:03:44.136Z,26.55
2016-05-11T12:04:43.967Z,26.28
2016-05-11T12:05:44.125Z,26.17
2016-05-11T12:06:44.144Z,26.1
2016-05-11T12:07:44.131Z,26.13
2016-05-11T12:08:44.134Z,26.18
2016-05-11T12:09:44.152Z,26.07
2016-05-11T12:10:44.155Z,26.13
2016-05-11T12:11:44.002Z,26.13
2016-05-11T12:12:44.161Z,26.12
2016-05-11T12:13:44.163Z,26.1
2016-05-11T12:14:43.994Z,26.06
2016-05-11T12:15:44.027Z,26.12
2016-05-11T12:16:44.171Z,26.09
2016-05-11T12:17:44.018Z,26.13
2016-05-11T12:18:44.176Z,26.12
2016-05-11T12:19:44.023Z,26.06
2016-05-11T12:20:43.870Z,26.17
2016-05-11T12:21:44.185Z,26.1
2016-05-11T12:22:44.031Z,26.26
2016-05-11T12:23:44.206Z,26.37
2016-05-11T12:24:44.037Z,26.07
2016-05-11T12:25:44.211Z,26.13
2016-05-11T12:26:44.198Z,26.29
2016-05-11T12:27:44.217Z,26.4
2016-05-11T12:28:44.063Z,26.52
2016-05-11T12:29:44.222Z,26.43
2016-05-11T12:30:44.100Z,26.48
2016-05-11T12:31:44.227Z,26.35
2016-05-11T12:32:44.073Z,26.5
2016-05-11T12:33:44.248Z,26.52
2016-05-11T12:34:44.078Z,26.51
2016-05-11T12:35:44.253Z,26.2
2016-05-11T12:36:44.256Z,26.09
2016-05-11T12:37:44.284Z,26.12
2016-05-11T12:38:44.350Z,26.13
2016-05-11T12:39:44.228Z,25.99
2016-05-11T12:40:44.278Z,25.95
2016-05-11T12:41:44.328Z,25.76
2016-05-11T12:42:44.533Z,25.95
2016-05-11T12:43:44.537Z,25.79
2016-05-11T12:44:44.572Z,25.94
2016-05-11T12:45:44.592Z,26.1
2016-05-11T12:46:44.440Z,26.02
2016-05-11T12:47:44.453Z,26.12
2016-05-11T12:48:44.462Z,25.99
2016-05-11T12:49:44.627Z,25.95
2016-05-11T12:50:44.621Z,25.98
2016-05-11T12:51:44.630Z,26.06
2016-05-11T12:52:44.667Z,26.28
2016-05-11T12:53:44.500Z,26.36
2016-05-11T12:54:44.504Z,26.28
2016-05-11T12:55:44.665Z,26.25
2016-05-11T12:56:44.733Z,26.12
2016-05-11T12:57:44.673Z,26.17